createdAt,value
2022-10-17T00:01:06.710Z,7.70
2022-10-17T00:03:38.741Z,7.20
2022-10-17T00:06:13.061Z,8.63
2022-10-17T00:08:44.769Z,5.10
2022-10-17T00:11:19.024Z,5.33
2022-10-17T00:13:53.582Z,7.10
2022-10-17T00:16:27.591Z,7.53
2022-10-17T00:18:59.520Z,5.30
2022-10-17T00:21:30.895Z,4.60
2022-10-17T00:24:02.185Z,7.30
2022-10-17T00:26:33.438Z,6.10
2022-10-17T00:29:05.000Z,8.73
2022-10-17T00:31:36.336Z,5.07
2022-10-17T00:34:07.576Z,10.83
2022-10-17T00:36:38.892Z,6.33
2022-10-17T00:39:10.141Z,3.13
2022-10-17T00:41:41.513Z,3.03
2022-10-17T00:44:30.997Z,7.17
2022-10-17T00:47:07.721Z,7.03
2022-10-17T00:49:39.605Z,8.40
2022-10-17T00:52:23.807Z,7.33
2022-10-17T00:55:12.134Z,9.87
2022-10-17T00:57:45.763Z,6.33
2022-10-17T01:00:17.957Z,5.43
2022-10-17T01:02:49.269Z,4.47
2022-10-17T01:05:21.113Z,2.70
2022-10-17T01:07:54.017Z,5.67
2022-10-17T01:10:32.968Z,4.43
2022-10-17T01:13:21.760Z,3.37
2022-10-17T01:16:10.115Z,5.67
2022-10-17T01:18:53.681Z,7.30
2022-10-17T01:21:38.098Z,3.93
2022-10-17T01:24:31.293Z,5.87
2022-10-17T01:27:25.823Z,4.33
2022-10-17T01:30:34.685Z,5.93
2022-10-17T01:33:53.191Z,3.93
2022-10-17T01:36:50.622Z,2.57
2022-10-17T01:42:18.597Z,6.37
2022-10-17T01:44:57.557Z,3.93
2022-10-17T01:47:32.301Z,4.03
2022-10-17T01:50:10.728Z,4.77
2022-10-17T01:52:48.629Z,7.80
2022-10-17T01:55:25.251Z,5.17
2022-10-17T01:58:03.084Z,5.67
2022-10-17T02:00:35.645Z,3.13
2022-10-17T02:03:12.102Z,5.40
2022-10-17T02:05:44.675Z,2.70
2022-10-17T02:08:26.451Z,2.27
2022-10-17T02:11:03.926Z,5.60
2022-10-17T02:17:02.172Z,4.97
2022-10-17T02:19:39.409Z,4.20
2022-10-17T02:22:35.170Z,4.27
2022-10-17T02:25:45.638Z,4.57
2022-10-17T02:28:42.283Z,2.53
2022-10-17T02:31:24.827Z,3.08
2022-10-17T02:34:02.194Z,6.00
2022-10-17T02:36:42.770Z,6.13
2022-10-17T02:39:16.137Z,4.80
2022-10-17T02:41:50.930Z,3.07
2022-10-17T02:44:23.211Z,7.07
2022-10-17T02:47:11.154Z,4.37
2022-10-17T02:49:49.996Z,4.27
2022-10-17T02:52:28.950Z,3.63
2022-10-17T02:55:08.258Z,4.33
2022-10-17T02:57:44.801Z,3.77
2022-10-17T03:00:18.839Z,8.13
2022-10-17T03:02:52.279Z,2.43
2022-10-17T03:05:29.184Z,7.63
2022-10-17T03:08:00.449Z,3.30
2022-10-17T03:10:31.753Z,5.77
2022-10-17T03:13:03.171Z,3.23
2022-10-17T03:15:34.441Z,9.23
2022-10-17T03:18:05.906Z,4.10
2022-10-17T03:20:37.362Z,3.20
2022-10-17T03:23:08.693Z,4.40
2022-10-17T03:25:41.559Z,2.83
2022-10-17T03:28:12.828Z,5.07
2022-10-17T03:30:44.182Z,6.03
2022-10-17T03:33:15.509Z,3.43
2022-10-17T03:35:46.856Z,5.80
2022-10-17T03:38:18.174Z,6.13
2022-10-17T03:40:56.362Z,5.40
2022-10-17T03:43:27.767Z,8.60
2022-10-17T03:46:00.234Z,3.47
2022-10-17T03:48:32.125Z,7.90
2022-10-17T03:51:08.957Z,6.20
2022-10-17T03:53:40.302Z,3.53
2022-10-17T03:56:20.260Z,3.07
2022-10-17T03:58:51.794Z,6.53
2022-10-17T04:01:23.496Z,4.07
2022-10-17T04:03:56.473Z,4.07
2022-10-17T04:06:27.867Z,6.57
2022-10-17T04:08:59.510Z,4.00
2022-10-17T04:11:30.798Z,5.27
2022-10-17T04:14:02.272Z,6.73
2022-10-17T04:16:33.627Z,5.80
2022-10-17T04:19:05.076Z,7.23
2022-10-17T04:21:36.340Z,5.23
2022-10-17T04:24:10.727Z,7.93
2022-10-17T04:26:42.239Z,3.50
2022-10-17T04:29:13.560Z,3.40
2022-10-17T04:31:44.886Z,4.60
2022-10-17T04:34:16.443Z,2.43
2022-10-17T04:36:47.741Z,4.73
2022-10-17T04:39:19.035Z,3.93
2022-10-17T04:41:50.332Z,4.53
2022-10-17T04:44:21.781Z,5.33
2022-10-17T04:46:53.042Z,4.37
2022-10-17T04:49:24.319Z,6.13
2022-10-17T04:51:55.568Z,5.30
2022-10-17T04:54:26.827Z,3.93
2022-10-17T04:56:58.107Z,2.67
2022-10-17T04:59:29.698Z,2.97
2022-10-17T05:02:00.977Z,4.77
2022-10-17T05:04:32.273Z,3.23
2022-10-17T05:07:03.859Z,2.67
2022-10-17T05:09:35.200Z,4.53
2022-10-17T05:12:09.493Z,3.43
2022-10-17T05:14:41.802Z,3.73
2022-10-17T05:17:13.065Z,4.77
2022-10-17T05:19:44.334Z,6.17
2022-10-17T05:22:15.636Z,3.40
2022-10-17T05:24:47.055Z,3.80
2022-10-17T05:27:18.314Z,4.80
2022-10-17T05:29:49.564Z,5.60
2022-10-17T05:32:20.814Z,4.57
2022-10-17T05:34:52.134Z,4.03
2022-10-17T05:37:23.667Z,2.83
2022-10-17T05:39:55.006Z,6.83
2022-10-17T05:42:26.472Z,4.90
2022-10-17T05:44:58.322Z,3.50
2022-10-17T05:47:29.782Z,4.50
2022-10-17T05:50:01.191Z,4.83
2022-10-17T05:52:32.672Z,7.40
2022-10-17T05:55:05.650Z,4.83
2022-10-17T05:57:37.035Z,4.60
2022-10-17T06:00:09.106Z,5.20
2022-10-17T06:02:40.362Z,3.83
2022-10-17T06:05:12.337Z,5.10
2022-10-17T06:07:43.908Z,4.30
2022-10-17T06:10:17.263Z,4.80
2022-10-17T06:12:48.585Z,4.83
2022-10-17T06:15:19.877Z,4.03
2022-10-17T06:17:51.138Z,3.50
2022-10-17T06:20:22.381Z,4.30
2022-10-17T06:22:53.640Z,7.43
2022-10-17T06:25:24.922Z,3.57
2022-10-17T06:27:56.215Z,6.37
2022-10-17T06:30:27.885Z,5.17
2022-10-17T06:32:59.188Z,5.20
2022-10-17T06:35:30.441Z,8.90
2022-10-17T06:38:03.055Z,5.13
2022-10-17T06:40:34.338Z,6.10
2022-10-17T06:43:05.753Z,5.37
2022-10-17T06:45:39.577Z,4.93
2022-10-17T06:48:10.832Z,5.97
2022-10-17T06:50:42.170Z,5.53
2022-10-17T06:53:13.430Z,5.80
2022-10-17T06:55:44.715Z,4.83
2022-10-17T06:58:15.969Z,3.20
2022-10-17T07:00:47.297Z,3.20
2022-10-17T07:03:18.679Z,4.70
2022-10-17T07:05:52.150Z,4.30
2022-10-17T07:08:24.297Z,5.17
2022-10-17T07:10:56.564Z,2.97
2022-10-17T07:13:27.823Z,3.00
2022-10-17T07:16:01.671Z,3.63
2022-10-17T07:18:32.935Z,4.17
2022-10-17T07:21:04.900Z,3.13
2022-10-17T07:23:37.182Z,4.13
2022-10-17T07:26:12.529Z,4.73
2022-10-17T07:28:46.023Z,3.00
2022-10-17T07:31:19.251Z,4.07
2022-10-17T07:33:51.245Z,5.50
2022-10-17T07:36:22.506Z,3.00
2022-10-17T07:38:53.899Z,5.60
2022-10-17T07:41:25.153Z,3.53
2022-10-17T07:43:56.415Z,4.47
2022-10-17T07:46:27.710Z,3.30
2022-10-17T07:48:58.975Z,3.23
2022-10-17T07:51:30.316Z,3.30
2022-10-17T07:54:01.637Z,3.53
2022-10-17T07:56:33.389Z,3.23
2022-10-17T07:59:08.341Z,5.07
2022-10-17T08:01:40.771Z,5.03
2022-10-17T08:04:12.120Z,4.20
2022-10-17T08:06:43.656Z,3.15
2022-10-17T08:09:15.630Z,3.40
2022-10-17T08:11:47.220Z,5.10
2022-10-17T08:14:18.522Z,3.85
2022-10-17T08:16:49.823Z,4.97
2022-10-17T08:19:21.115Z,4.47
2022-10-17T08:21:54.229Z,4.53
2022-10-17T08:24:25.653Z,5.10
2022-10-17T08:26:58.233Z,2.40
2022-10-17T08:29:29.671Z,3.50
2022-10-17T08:32:02.368Z,2.65
2022-10-17T08:34:34.750Z,3.13
2022-10-17T08:37:06.116Z,4.38
2022-10-17T08:39:37.495Z,6.43
2022-10-17T08:42:08.714Z,4.38
2022-10-17T08:44:56.728Z,2.92
2022-10-17T08:47:44.987Z,7.32
2022-10-17T08:50:43.789Z,3.78
2022-10-17T08:53:34.712Z,5.47
2022-10-17T08:56:19.911Z,2.40
2022-10-17T08:58:56.370Z,7.00
2022-10-17T09:01:50.070Z,5.18
2022-10-17T09:04:39.470Z,3.60
2022-10-17T09:07:27.325Z,2.85
2022-10-17T09:10:15.758Z,4.00
2022-10-17T09:13:25.218Z,2.90
2022-10-17T09:16:07.954Z,3.55
2022-10-17T09:19:01.667Z,6.00
2022-10-17T09:22:00.746Z,2.92
2022-10-17T09:24:37.939Z,5.97
2022-10-17T09:27:36.909Z,5.68
2022-10-17T09:30:49.221Z,5.78
2022-10-17T09:33:35.397Z,4.40
2022-10-17T09:36:33.803Z,3.67
2022-10-17T09:39:12.358Z,9.55
2022-10-17T09:41:49.379Z,5.28
2022-10-17T09:44:35.452Z,5.28
2022-10-17T09:47:22.519Z,6.65
2022-10-17T09:49:54.058Z,5.45
2022-10-17T09:52:30.597Z,4.47
2022-10-17T09:55:15.867Z,5.40
2022-10-17T09:57:58.639Z,4.90
2022-10-17T10:00:32.922Z,5.30
2022-10-17T10:03:23.628Z,4.85
2022-10-17T10:06:12.615Z,4.57
2022-10-17T10:08:53.241Z,5.90
2022-10-17T10:11:44.150Z,7.07
2022-10-17T10:14:33.302Z,6.38
2022-10-17T10:17:24.137Z,5.25
2022-10-17T10:19:55.866Z,3.95
2022-10-17T10:22:27.751Z,4.72
2022-10-17T10:25:13.300Z,3.65
2022-10-17T10:27:47.034Z,6.63
2022-10-17T10:30:31.439Z,3.83
2022-10-17T10:33:05.019Z,5.85
2022-10-17T10:35:37.785Z,7.15
2022-10-17T10:38:17.597Z,4.72
2022-10-17T10:40:52.911Z,3.03
2022-10-17T10:43:32.840Z,7.97
2022-10-17T10:46:22.719Z,3.42
2022-10-17T10:49:01.787Z,4.22
2022-10-17T10:51:39.631Z,4.57
2022-10-17T10:54:26.569Z,3.58
2022-10-17T10:57:01.134Z,5.07
2022-10-17T10:59:42.985Z,3.20
2022-10-17T11:02:42.714Z,4.85
2022-10-17T11:05:41.377Z,4.95
2022-10-17T11:08:42.989Z,8.13
2022-10-17T11:11:23.723Z,2.92
2022-10-17T11:14:04.291Z,4.30
2022-10-17T11:16:41.788Z,6.68
2022-10-17T11:19:33.819Z,3.83
2022-10-17T11:22:16.537Z,5.07
2022-10-17T11:24:59.516Z,5.43
2022-10-17T11:27:31.647Z,5.78
2022-10-17T11:30:03.845Z,5.30
2022-10-17T11:32:39.891Z,4.03
2022-10-17T11:35:24.954Z,3.55
2022-10-17T11:38:01.765Z,3.50
2022-10-17T11:40:40.544Z,5.78
2022-10-17T11:43:20.110Z,5.50
2022-10-17T11:46:25.273Z,4.30
2022-10-17T11:49:04.047Z,4.63
2022-10-17T11:52:02.240Z,3.33
2022-10-17T11:54:45.115Z,4.88
2022-10-17T11:57:22.056Z,3.97
2022-10-17T12:00:08.599Z,4.57
2022-10-17T12:02:56.025Z,7.38
2022-10-17T12:05:36.977Z,7.03
2022-10-17T12:08:17.318Z,3.28
2022-10-17T12:11:14.751Z,4.82
2022-10-17T12:13:52.551Z,2.78
2022-10-17T12:16:23.761Z,6.95
2022-10-17T12:19:00.931Z,5.55
2022-10-17T12:21:55.103Z,5.25
2022-10-17T12:24:54.277Z,4.95
2022-10-17T12:27:46.129Z,4.32
2022-10-17T12:30:23.473Z,6.32
2022-10-17T12:33:06.525Z,6.80
2022-10-17T12:35:39.341Z,5.15
2022-10-17T12:38:24.866Z,5.35
2022-10-17T12:40:57.869Z,8.43
2022-10-17T12:43:29.200Z,3.97
2022-10-17T12:46:02.153Z,7.70
2022-10-17T12:48:36.277Z,6.50
2022-10-17T12:51:35.303Z,8.02
2022-10-17T12:54:15.057Z,5.97
2022-10-17T12:56:48.737Z,7.85
2022-10-17T12:59:23.911Z,7.80
2022-10-17T13:01:59.083Z,10.73
2022-10-17T13:04:31.133Z,13.00
2022-10-17T13:07:03.773Z,8.40
2022-10-17T13:09:43.335Z,8.65
2022-10-17T13:12:22.861Z,6.75
2022-10-17T13:14:54.925Z,7.72
2022-10-17T13:17:30.711Z,9.90
2022-10-17T13:20:02.951Z,9.20
2022-10-17T13:22:34.237Z,7.40
2022-10-17T13:25:26.298Z,9.50
2022-10-17T13:28:06.876Z,6.53
2022-10-17T13:30:38.221Z,8.40
2022-10-17T13:33:31.122Z,9.93
2022-10-17T13:36:06.599Z,10.10
2022-10-17T13:38:41.719Z,11.52
2022-10-17T13:41:34.838Z,11.10
2022-10-17T13:44:19.489Z,10.65
2022-10-17T13:46:51.797Z,7.13
2022-10-17T13:49:33.801Z,10.43
2022-10-17T13:52:07.339Z,9.25
2022-10-17T13:54:40.591Z,12.40
2022-10-17T13:57:24.190Z,9.30
2022-10-17T13:59:58.854Z,11.15
2022-10-17T14:02:31.833Z,7.75
2022-10-17T14:05:18.658Z,13.38
2022-10-17T14:08:14.233Z,10.82
2022-10-17T14:10:47.682Z,9.25
2022-10-17T14:13:27.774Z,10.13
2022-10-17T14:16:01.330Z,11.10
2022-10-17T14:18:36.677Z,12.15
2022-10-17T14:21:34.345Z,11.05
2022-10-17T14:24:26.187Z,13.05
2022-10-17T14:26:59.471Z,11.43
2022-10-17T14:29:49.645Z,13.82
2022-10-17T14:32:22.111Z,11.55
2022-10-17T14:35:05.601Z,10.55
2022-10-17T14:37:49.298Z,15.27
2022-10-17T14:40:23.597Z,9.38
2022-10-17T14:42:57.994Z,9.85
2022-10-17T14:45:36.224Z,9.55
2022-10-17T14:48:13.484Z,13.25
2022-10-17T14:51:12.542Z,10.68
2022-10-17T14:54:04.952Z,11.20
2022-10-17T14:56:40.890Z,7.85
2022-10-17T14:59:21.420Z,10.52
2022-10-17T15:01:56.929Z,12.60
2022-10-17T15:04:28.211Z,10.30
2022-10-17T15:06:59.542Z,10.95
2022-10-17T15:09:31.145Z,10.85
2022-10-17T15:12:04.038Z,17.38
2022-10-17T15:14:35.323Z,12.80
2022-10-17T15:17:15.704Z,10.27
2022-10-17T15:19:48.708Z,11.75
2022-10-17T15:22:20.008Z,9.88
2022-10-17T15:24:51.363Z,14.23
2022-10-17T15:27:24.756Z,12.45
2022-10-17T15:29:56.043Z,12.00
2022-10-17T15:32:27.358Z,11.80
2022-10-17T15:34:58.640Z,11.32
2022-10-17T15:37:33.854Z,14.07
2022-10-17T15:40:06.051Z,13.57
2022-10-17T15:42:37.297Z,13.18
2022-10-17T15:45:15.526Z,12.27
2022-10-17T15:47:58.994Z,16.75
2022-10-17T15:50:30.552Z,12.55
2022-10-17T15:53:01.851Z,13.27
2022-10-17T15:55:33.134Z,15.77
2022-10-17T15:58:04.546Z,13.50
2022-10-17T16:00:35.873Z,14.35
2022-10-17T16:03:07.192Z,18.77
2022-10-17T16:05:38.460Z,17.73
2022-10-17T16:08:09.729Z,21.42
2022-10-17T16:10:41.129Z,22.83
2022-10-17T16:13:21.082Z,23.63
2022-10-17T16:15:52.898Z,18.17
2022-10-17T16:18:24.158Z,25.58
2022-10-17T16:20:55.418Z,26.67
2022-10-17T16:23:26.673Z,23.65
2022-10-17T16:25:57.930Z,25.02
2022-10-17T16:28:29.238Z,22.70
2022-10-17T16:31:00.835Z,28.15
2022-10-17T16:33:32.078Z,29.92
2022-10-17T16:36:03.482Z,27.48
2022-10-17T16:38:34.875Z,23.17
2022-10-17T16:41:23.835Z,20.40
2022-10-17T16:43:57.664Z,19.00
2022-10-17T16:46:30.669Z,18.45
2022-10-17T16:49:04.154Z,18.70
2022-10-17T16:51:35.835Z,17.17
2022-10-17T16:54:07.208Z,17.67
2022-10-17T16:56:38.604Z,18.38
2022-10-17T16:59:11.513Z,17.88
2022-10-17T17:01:42.916Z,16.60
2022-10-17T17:04:14.233Z,14.57
2022-10-17T17:09:22.058Z,14.38
2022-10-17T17:11:53.331Z,14.73
2022-10-17T17:14:24.616Z,15.05
2022-10-17T17:16:55.866Z,15.93
2022-10-17T17:19:27.153Z,17.98
2022-10-17T17:21:58.411Z,17.58
2022-10-17T17:24:29.678Z,19.05
2022-10-17T17:27:00.934Z,18.20
2022-10-17T17:29:32.409Z,15.85
2022-10-17T17:32:03.948Z,17.25
2022-10-17T17:34:37.060Z,18.58
2022-10-17T17:37:08.346Z,23.23
2022-10-17T17:39:39.643Z,16.05
2022-10-17T17:42:10.945Z,16.73
2022-10-17T17:44:42.305Z,19.65
2022-10-17T17:47:14.030Z,20.05
2022-10-17T17:49:45.334Z,19.33
2022-10-17T17:52:16.692Z,20.88
2022-10-17T17:54:47.958Z,20.17
2022-10-17T17:57:19.210Z,21.80
2022-10-17T17:59:50.466Z,25.17
2022-10-17T18:02:21.750Z,19.02
2022-10-17T18:04:53.013Z,25.05
2022-10-17T18:07:24.361Z,19.27
2022-10-17T18:09:56.889Z,22.60
2022-10-17T18:12:29.338Z,18.23
2022-10-17T18:15:02.037Z,21.38
2022-10-17T18:17:33.481Z,21.45
2022-10-17T18:20:06.125Z,23.08
2022-10-17T18:22:37.495Z,25.10
2022-10-17T18:25:08.942Z,23.45
2022-10-17T18:27:40.245Z,20.42
2022-10-17T18:30:11.722Z,27.33
2022-10-17T18:32:42.991Z,22.38
2022-10-17T18:35:14.441Z,22.70
2022-10-17T18:37:45.768Z,19.35
2022-10-17T18:40:17.199Z,21.60
2022-10-17T18:42:48.450Z,27.95
2022-10-17T18:45:19.809Z,18.25
2022-10-17T18:47:52.710Z,20.52
2022-10-17T18:50:24.659Z,21.58
2022-10-17T18:52:56.038Z,23.80
2022-10-17T18:55:27.304Z,21.08
2022-10-17T18:58:00.007Z,22.63
2022-10-17T19:00:31.353Z,22.00
2022-10-17T19:03:04.726Z,22.17
2022-10-17T19:05:38.501Z,21.90
2022-10-17T19:08:09.744Z,22.83
2022-10-17T19:10:42.594Z,21.90
2022-10-17T19:13:16.890Z,25.10
2022-10-17T19:15:50.590Z,24.15
2022-10-17T19:18:21.834Z,27.17
2022-10-17T19:20:53.114Z,21.08
2022-10-17T19:23:24.373Z,22.40
2022-10-17T19:26:01.125Z,23.52
2022-10-17T19:28:33.832Z,25.58
2022-10-17T19:31:06.122Z,21.52
2022-10-17T19:33:37.583Z,23.33
2022-10-17T19:36:13.315Z,17.30
2022-10-17T19:38:44.637Z,17.90
2022-10-17T19:41:16.500Z,19.83
2022-10-17T19:43:48.203Z,15.07
2022-10-17T19:46:23.553Z,16.20
2022-10-17T19:48:55.321Z,11.18
2022-10-17T19:51:27.542Z,13.57
2022-10-17T19:54:00.398Z,14.40
2022-10-17T19:56:37.539Z,13.83
2022-10-17T19:59:11.918Z,13.98
2022-10-17T20:01:44.627Z,12.37
2022-10-17T20:04:15.981Z,15.93
2022-10-17T20:06:47.233Z,13.57
2022-10-17T20:09:18.549Z,8.83
2022-10-17T20:11:49.803Z,9.95
2022-10-17T20:14:21.151Z,10.10
2022-10-17T20:16:52.633Z,8.57
2022-10-17T20:19:24.051Z,9.57
2022-10-17T20:21:55.315Z,13.30
2022-10-17T20:24:26.605Z,8.73
2022-10-17T20:26:57.934Z,7.77
2022-10-17T20:29:29.219Z,6.87
2022-10-17T20:32:00.851Z,9.57
2022-10-17T20:34:35.392Z,9.63
2022-10-17T20:37:06.663Z,11.70
2022-10-17T20:39:37.993Z,8.87
2022-10-17T20:42:09.305Z,8.07
2022-10-17T20:44:40.646Z,9.17
2022-10-17T20:47:21.079Z,10.17
2022-10-17T20:50:04.655Z,9.50
2022-10-17T20:52:36.038Z,10.57
2022-10-17T20:55:07.723Z,12.33
2022-10-17T20:57:39.000Z,12.33
2022-10-17T21:00:11.017Z,11.80
2022-10-17T21:02:42.268Z,9.07
2022-10-17T21:05:13.780Z,16.90
2022-10-17T21:07:45.114Z,14.90
2022-10-17T21:10:35.217Z,11.77
2022-10-17T21:13:06.837Z,15.83
2022-10-17T21:15:38.098Z,11.23
2022-10-17T21:18:09.368Z,15.27
2022-10-17T21:20:40.617Z,11.03
2022-10-17T21:23:11.849Z,17.07
2022-10-17T21:25:43.822Z,18.97
2022-10-17T21:28:15.159Z,20.03
2022-10-17T21:30:46.415Z,18.60
2022-10-17T21:33:17.693Z,17.97
2022-10-17T21:35:54.726Z,17.53
2022-10-17T21:38:26.032Z,19.00
2022-10-17T21:40:57.307Z,19.57
2022-10-17T21:43:28.574Z,18.93
2022-10-17T21:46:08.249Z,22.30
2022-10-17T21:48:39.861Z,17.03
2022-10-17T21:51:14.997Z,20.17
2022-10-17T21:53:46.750Z,18.20
2022-10-17T21:56:20.664Z,15.93
2022-10-17T21:58:51.926Z,14.33
2022-10-17T22:01:26.103Z,15.43
2022-10-17T22:03:59.782Z,18.77
2022-10-17T22:06:39.751Z,16.93
2022-10-17T22:09:24.409Z,14.63
2022-10-17T22:11:56.870Z,13.20
2022-10-17T22:14:28.390Z,14.50
2022-10-17T22:17:01.342Z,13.27
2022-10-17T22:19:32.710Z,16.03
2022-10-17T22:22:03.948Z,12.60
2022-10-17T22:24:35.462Z,13.40
2022-10-17T22:27:06.731Z,16.13
2022-10-17T22:29:39.548Z,10.60
2022-10-17T22:32:10.848Z,16.30
2022-10-17T22:34:42.265Z,14.07
2022-10-17T22:37:13.613Z,13.57
2022-10-17T22:39:44.961Z,13.70
2022-10-17T22:42:16.269Z,15.40
2022-10-17T22:44:47.740Z,17.10
2022-10-17T22:47:18.989Z,15.43
2022-10-17T22:49:50.357Z,14.23
2022-10-17T22:52:21.856Z,12.80
2022-10-17T22:54:53.122Z,16.03
2022-10-17T22:57:24.364Z,12.37
2022-10-17T22:59:55.730Z,12.83
2022-10-17T23:02:27.158Z,16.07
2022-10-17T23:04:59.211Z,14.57
2022-10-17T23:07:31.048Z,13.80
2022-10-17T23:10:03.247Z,13.33
2022-10-17T23:12:34.501Z,13.27
2022-10-17T23:15:06.278Z,13.50
2022-10-17T23:17:37.585Z,20.47
2022-10-17T23:20:09.118Z,16.30
2022-10-17T23:22:40.386Z,17.73
2022-10-17T23:25:11.675Z,17.77
2022-10-17T23:27:43.444Z,13.83
2022-10-17T23:30:15.081Z,19.20
2022-10-17T23:32:46.352Z,19.07
2022-10-17T23:35:17.770Z,13.73
2022-10-17T23:37:49.005Z,20.93
2022-10-17T23:40:20.285Z,21.67
2022-10-17T23:42:51.574Z,18.93
2022-10-17T23:45:22.966Z,21.17
2022-10-17T23:47:54.295Z,20.87
2022-10-17T23:50:25.648Z,19.17
2022-10-17T23:52:56.901Z,21.13
2022-10-17T23:55:28.170Z,17.30
2022-10-17T23:57:59.426Z,20.93
